sensor_id;sensor_type;location;lat;lon;timestamp;temperature;humidity
210;DHT22;90;48.810;9.120;2024-03-08T00:01:32;5.30;83.00
210;DHT22;90;48.810;9.120;2024-03-08T00:03:59;5.30;83.10
210;DHT22;90;48.810;9.120;2024-03-08T00:06:26;5.10;83.20
210;DHT22;90;48.810;9.120;2024-03-08T00:08:52;5.10;83.60
210;DHT22;90;48.810;9.120;2024-03-08T00:11:19;5.10;83.60
210;DHT22;90;48.810;9.120;2024-03-08T00:13:46;5.20;83.60
210;DHT22;90;48.810;9.120;2024-03-08T00:16:13;5.20;82.80
210;DHT22;90;48.810;9.120;2024-03-08T00:18:41;5.30;82.70
210;DHT22;90;48.810;9.120;2024-03-08T00:21:08;5.20;82.50
210;DHT22;90;48.810;9.120;2024-03-08T00:23:35;5.20;82.60
210;DHT22;90;48.810;9.120;2024-03-08T00:26:03;5.20;82.60
210;DHT22;90;48.810;9.120;2024-03-08T00:28:30;5.20;82.80
210;DHT22;90;48.810;9.120;2024-03-08T00:30:57;5.10;83.10
210;DHT22;90;48.810;9.120;2024-03-08T00:33:25;5.10;82.90
210;DHT22;90;48.810;9.120;2024-03-08T00:35:54;5.00;83.00
210;DHT22;90;48.810;9.120;2024-03-08T00:38:21;5.00;83.10
210;DHT22;90;48.810;9.120;2024-03-08T00:40:48;5.00;82.80
210;DHT22;90;48.810;9.120;2024-03-08T00:43:15;5.00;82.80
210;DHT22;90;48.810;9.120;2024-03-08T00:45:42;4.90;83.00
210;DHT22;90;48.810;9.120;2024-03-08T00:48:09;4.90;83.20
210;DHT22;90;48.810;9.120;2024-03-08T00:50:36;4.90;83.20
210;DHT22;90;48.810;9.120;2024-03-08T00:53:04;4.90;83.10
210;DHT22;90;48.810;9.120;2024-03-08T00:55:31;4.90;82.90
210;DHT22;90;48.810;9.120;2024-03-08T00:57:58;4.80;82.90
210;DHT22;90;48.810;9.120;2024-03-08T01:00:25;4.80;83.00
210;DHT22;90;48.810;9.120;2024-03-08T01:02:53;4.70;83.10
210;DHT22;90;48.810;9.120;2024-03-08T01:05:20;4.70;83.40
210;DHT22;90;48.810;9.120;2024-03-08T01:07:46;4.70;83.50
210;DHT22;90;48.810;9.120;2024-03-08T01:10:17;4.70;83.40
210;DHT22;90;48.810;9.120;2024-03-08T01:12:44;4.70;83.30
210;DHT22;90;48.810;9.120;2024-03-08T01:15:11;4.70;83.30
210;DHT22;90;48.810;9.120;2024-03-08T01:17:44;4.60;83.30
210;DHT22;90;48.810;9.120;2024-03-08T01:20:17;4.60;83.50
210;DHT22;90;48.810;9.120;2024-03-08T01:22:51;4.60;83.40
210;DHT22;90;48.810;9.120;2024-03-08T01:25:25;4.60;83.40
210;DHT22;90;48.810;9.120;2024-03-08T01:28:06;4.50;83.30
210;DHT22;90;48.810;9.120;2024-03-08T01:30:47;4.40;82.80
210;DHT22;90;48.810;9.120;2024-03-08T01:33:38;4.40;82.70
210;DHT22;90;48.810;9.120;2024-03-08T01:36:11;4.40;82.70
210;DHT22;90;48.810;9.120;2024-03-08T01:38:40;4.30;82.80
210;DHT22;90;48.810;9.120;2024-03-08T01:41:16;4.20;82.90
210;DHT22;90;48.810;9.120;2024-03-08T01:43:48;4.20;83.10
210;DHT22;90;48.810;9.120;2024-03-08T01:46:20;4.20;83.40
210;DHT22;90;48.810;9.120;2024-03-08T01:48:48;4.20;83.40
210;DHT22;90;48.810;9.120;2024-03-08T01:51:16;4.20;83.30
210;DHT22;90;48.810;9.120;2024-03-08T01:53:44;4.10;83.30
210;DHT22;90;48.810;9.120;2024-03-08T01:56:14;4.10;83.50
210;DHT22;90;48.810;9.120;2024-03-08T01:58:41;4.00;83.60
210;DHT22;90;48.810;9.120;2024-03-08T02:01:12;4.00;83.80
210;DHT22;90;48.810;9.120;2024-03-08T02:03:40;4.00;84.00
210;DHT22;90;48.810;9.120;2024-03-08T02:06:12;4.00;83.90
210;DHT22;90;48.810;9.120;2024-03-08T02:08:43;4.00;84.00
210;DHT22;90;48.810;9.120;2024-03-08T02:11:10;4.00;83.60
210;DHT22;90;48.810;9.120;2024-03-08T02:13:40;4.00;83.50
210;DHT22;90;48.810;9.120;2024-03-08T02:16:07;3.90;83.50
210;DHT22;90;48.810;9.120;2024-03-08T02:18:37;3.90;83.60
210;DHT22;90;48.810;9.120;2024-03-08T02:21:12;3.80;83.90
210;DHT22;90;48.810;9.120;2024-03-08T02:23:40;3.80;83.90
210;DHT22;90;48.810;9.120;2024-03-08T02:26:08;3.90;83.90
210;DHT22;90;48.810;9.120;2024-03-08T02:28:38;3.90;84.00
210;DHT22;90;48.810;9.120;2024-03-08T02:31:07;3.90;84.10
210;DHT22;90;48.810;9.120;2024-03-08T02:33:37;3.90;84.10
210;DHT22;90;48.810;9.120;2024-03-08T02:36:08;3.80;84.10
210;DHT22;90;48.810;9.120;2024-03-08T02:38:38;3.80;84.30
210;DHT22;90;48.810;9.120;2024-03-08T02:41:06;3.90;84.40
210;DHT22;90;48.810;9.120;2024-03-08T02:43:36;3.90;84.40
210;DHT22;90;48.810;9.120;2024-03-08T02:46:03;3.90;84.00
210;DHT22;90;48.810;9.120;2024-03-08T02:48:32;3.90;84.10
210;DHT22;90;48.810;9.120;2024-03-08T02:51:06;3.80;84.00
210;DHT22;90;48.810;9.120;2024-03-08T02:53:38;3.80;84.10
210;DHT22;90;48.810;9.120;2024-03-08T02:56:05;3.80;84.30
210;DHT22;90;48.810;9.120;2024-03-08T02:58:41;3.80;84.10
210;DHT22;90;48.810;9.120;2024-03-08T03:01:08;3.80;84.40
210;DHT22;90;48.810;9.120;2024-03-08T03:03:35;3.80;84.00
210;DHT22;90;48.810;9.120;2024-03-08T03:06:06;3.90;84.20
210;DHT22;90;48.810;9.120;2024-03-08T03:08:36;3.90;83.40
210;DHT22;90;48.810;9.120;2024-03-08T03:11:06;3.80;83.60
210;DHT22;90;48.810;9.120;2024-03-08T03:13:37;3.70;83.80
210;DHT22;90;48.810;9.120;2024-03-08T03:16:04;3.70;84.10
210;DHT22;90;48.810;9.120;2024-03-08T03:18:35;3.70;84.00
210;DHT22;90;48.810;9.120;2024-03-08T03:21:04;3.70;84.00
210;DHT22;90;48.810;9.120;2024-03-08T03:23:37;3.70;83.70
210;DHT22;90;48.810;9.120;2024-03-08T03:26:06;3.70;83.70
210;DHT22;90;48.810;9.120;2024-03-08T03:28:36;3.70;83.80
210;DHT22;90;48.810;9.120;2024-03-08T03:31:07;3.60;83.70
210;DHT22;90;48.810;9.120;2024-03-08T03:33:37;3.60;83.90
210;DHT22;90;48.810;9.120;2024-03-08T03:36:06;3.60;83.80
210;DHT22;90;48.810;9.120;2024-03-08T03:38:34;3.50;83.90
210;DHT22;90;48.810;9.120;2024-03-08T03:41:01;3.50;84.30
210;DHT22;90;48.810;9.120;2024-03-08T03:43:36;3.50;84.20
210;DHT22;90;48.810;9.120;2024-03-08T03:46:06;3.50;84.20
210;DHT22;90;48.810;9.120;2024-03-08T03:48:35;3.50;84.30
210;DHT22;90;48.810;9.120;2024-03-08T03:51:11;3.50;84.10
210;DHT22;90;48.810;9.120;2024-03-08T03:53:41;3.50;84.10
210;DHT22;90;48.810;9.120;2024-03-08T03:56:09;3.60;84.20
210;DHT22;90;48.810;9.120;2024-03-08T03:58:37;3.60;83.60
210;DHT22;90;48.810;9.120;2024-03-08T04:01:05;3.60;83.80
210;DHT22;90;48.810;9.120;2024-03-08T04:03:36;3.70;83.70
210;DHT22;90;48.810;9.120;2024-03-08T04:06:04;3.70;82.90
210;DHT22;90;48.810;9.120;2024-03-08T04:08:42;3.70;83.10
210;DHT22;90;48.810;9.120;2024-03-08T04:11:09;3.60;83.10
210;DHT22;90;48.810;9.120;2024-03-08T04:13:39;3.60;83.40
210;DHT22;90;48.810;9.120;2024-03-08T04:16:21;3.60;83.40
210;DHT22;90;48.810;9.120;2024-03-08T04:18:50;3.60;83.50
210;DHT22;90;48.810;9.120;2024-03-08T04:21:23;3.60;83.50
210;DHT22;90;48.810;9.120;2024-03-08T04:23:50;3.60;83.40
210;DHT22;90;48.810;9.120;2024-03-08T04:26:19;3.60;83.50
210;DHT22;90;48.810;9.120;2024-03-08T04:28:50;3.60;83.50
210;DHT22;90;48.810;9.120;2024-03-08T04:31:17;3.60;83.40
210;DHT22;90;48.810;9.120;2024-03-08T04:34:03;3.50;83.50
210;DHT22;90;48.810;9.120;2024-03-08T04:36:37;3.50;83.50
210;DHT22;90;48.810;9.120;2024-03-08T04:39:04;3.60;83.60
210;DHT22;90;48.810;9.120;2024-03-08T04:41:32;3.50;83.50
210;DHT22;90;48.810;9.120;2024-03-08T04:44:08;3.50;83.70
210;DHT22;90;48.810;9.120;2024-03-08T04:46:35;3.50;83.50
210;DHT22;90;48.810;9.120;2024-03-08T04:49:03;3.60;83.40
210;DHT22;90;48.810;9.120;2024-03-08T04:51:36;3.60;83.30
210;DHT22;90;48.810;9.120;2024-03-08T04:54:03;3.60;83.50
210;DHT22;90;48.810;9.120;2024-03-08T04:56:35;3.60;82.90
210;DHT22;90;48.810;9.120;2024-03-08T04:59:02;3.60;83.30
210;DHT22;90;48.810;9.120;2024-03-08T05:01:30;3.60;83.10
210;DHT22;90;48.810;9.120;2024-03-08T05:03:58;3.60;83.40
210;DHT22;90;48.810;9.120;2024-03-08T05:06:25;3.50;83.40
210;DHT22;90;48.810;9.120;2024-03-08T05:08:52;3.50;83.60
210;DHT22;90;48.810;9.120;2024-03-08T05:11:19;3.60;83.40
210;DHT22;90;48.810;9.120;2024-03-08T05:13:47;3.60;83.10
210;DHT22;90;48.810;9.120;2024-03-08T05:16:21;3.50;83.30
210;DHT22;90;48.810;9.120;2024-03-08T05:18:52;3.60;83.30
210;DHT22;90;48.810;9.120;2024-03-08T05:21:23;3.50;83.40
210;DHT22;90;48.810;9.120;2024-03-08T05:24:01;3.50;83.50
210;DHT22;90;48.810;9.120;2024-03-08T05:26:36;3.50;83.70
210;DHT22;90;48.810;9.120;2024-03-08T05:29:03;3.50;83.50
210;DHT22;90;48.810;9.120;2024-03-08T05:31:43;3.50;83.40
210;DHT22;90;48.810;9.120;2024-03-08T05:34:41;3.50;83.40
210;DHT22;90;48.810;9.120;2024-03-08T05:37:22;3.50;83.40
210;DHT22;90;48.810;9.120;2024-03-08T05:39:59;3.50;83.60
210;DHT22;90;48.810;9.120;2024-03-08T05:42:28;3.40;83.50
210;DHT22;90;48.810;9.120;2024-03-08T05:44:55;3.40;83.80
210;DHT22;90;48.810;9.120;2024-03-08T05:47:26;3.40;83.80
210;DHT22;90;48.810;9.120;2024-03-08T05:49:54;3.40;83.90
210;DHT22;90;48.810;9.120;2024-03-08T05:52:26;3.40;84.00
210;DHT22;90;48.810;9.120;2024-03-08T05:54:53;3.40;84.00
210;DHT22;90;48.810;9.120;2024-03-08T05:57:20;3.40;84.40
210;DHT22;90;48.810;9.120;2024-03-08T05:59:54;3.40;84.00
210;DHT22;90;48.810;9.120;2024-03-08T06:02:23;3.40;84.10
210;DHT22;90;48.810;9.120;2024-03-08T06:04:50;3.40;84.10
210;DHT22;90;48.810;9.120;2024-03-08T06:07:18;3.40;84.10
210;DHT22;90;48.810;9.120;2024-03-08T06:09:45;3.50;83.90
210;DHT22;90;48.810;9.120;2024-03-08T06:12:13;3.50;83.60
210;DHT22;90;48.810;9.120;2024-03-08T06:14:44;3.40;83.70
210;DHT22;90;48.810;9.120;2024-03-08T06:17:11;3.40;83.70
210;DHT22;90;48.810;9.120;2024-03-08T06:19:38;3.40;83.90
210;DHT22;90;48.810;9.120;2024-03-08T06:22:04;3.40;83.90
210;DHT22;90;48.810;9.120;2024-03-08T06:24:33;3.50;84.10
210;DHT22;90;48.810;9.120;2024-03-08T06:27:02;3.50;83.90
210;DHT22;90;48.810;9.120;2024-03-08T06:29:29;3.50;84.00
210;DHT22;90;48.810;9.120;2024-03-08T06:31:56;3.50;84.20
210;DHT22;90;48.810;9.120;2024-03-08T06:34:24;3.50;84.20
210;DHT22;90;48.810;9.120;2024-03-08T06:36:51;3.60;84.00
210;DHT22;90;48.810;9.120;2024-03-08T06:39:21;3.50;84.10
210;DHT22;90;48.810;9.120;2024-03-08T06:41:51;3.60;84.20
210;DHT22;90;48.810;9.120;2024-03-08T06:44:18;3.60;84.30
210;DHT22;90;48.810;9.120;2024-03-08T06:46:47;3.60;84.20
210;DHT22;90;48.810;9.120;2024-03-08T06:49:14;3.70;84.40
210;DHT22;90;48.810;9.120;2024-03-08T06:51:41;3.70;83.70
210;DHT22;90;48.810;9.120;2024-03-08T06:54:08;3.80;84.10
210;DHT22;90;48.810;9.120;2024-03-08T06:56:35;3.90;87.60
210;DHT22;90;48.810;9.120;2024-03-08T06:59:03;3.90;84.80
210;DHT22;90;48.810;9.120;2024-03-08T07:01:30;3.90;83.80
210;DHT22;90;48.810;9.120;2024-03-08T07:03:57;3.90;83.50
210;DHT22;90;48.810;9.120;2024-03-08T07:06:25;3.80;83.50
210;DHT22;90;48.810;9.120;2024-03-08T07:08:51;3.80;83.60
210;DHT22;90;48.810;9.120;2024-03-08T07:11:18;3.80;83.90
210;DHT22;90;48.810;9.120;2024-03-08T07:13:45;3.70;84.00
210;DHT22;90;48.810;9.120;2024-03-08T07:16:15;3.80;84.30
210;DHT22;90;48.810;9.120;2024-03-08T07:18:44;3.80;84.40
210;DHT22;90;48.810;9.120;2024-03-08T07:21:11;3.90;84.30
210;DHT22;90;48.810;9.120;2024-03-08T07:23:38;3.90;84.30
210;DHT22;90;48.810;9.120;2024-03-08T07:26:28;4.00;84.30
210;DHT22;90;48.810;9.120;2024-03-08T07:28:56;4.00;84.20
210;DHT22;90;48.810;9.120;2024-03-08T07:31:25;4.10;84.00
210;DHT22;90;48.810;9.120;2024-03-08T07:34:04;4.10;84.00
210;DHT22;90;48.810;9.120;2024-03-08T07:36:33;4.10;84.00
210;DHT22;90;48.810;9.120;2024-03-08T07:39:00;4.10;84.00
210;DHT22;90;48.810;9.120;2024-03-08T07:41:27;4.10;84.00
210;DHT22;90;48.810;9.120;2024-03-08T07:43:54;4.20;84.10
210;DHT22;90;48.810;9.120;2024-03-08T07:46:21;4.20;84.00
210;DHT22;90;48.810;9.120;2024-03-08T07:48:49;4.30;83.60
210;DHT22;90;48.810;9.120;2024-03-08T07:51:17;4.30;83.60
210;DHT22;90;48.810;9.120;2024-03-08T07:53:44;4.40;83.40
210;DHT22;90;48.810;9.120;2024-03-08T07:56:10;4.40;83.50
210;DHT22;90;48.810;9.120;2024-03-08T07:58:39;4.40;83.10
210;DHT22;90;48.810;9.120;2024-03-08T08:01:07;4.30;82.90
210;DHT22;90;48.810;9.120;2024-03-08T08:03:34;4.40;83.20
210;DHT22;90;48.810;9.120;2024-03-08T08:06:05;4.50;83.00
210;DHT22;90;48.810;9.120;2024-03-08T08:08:33;4.60;82.70
210;DHT22;90;48.810;9.120;2024-03-08T08:10:59;4.60;82.70
210;DHT22;90;48.810;9.120;2024-03-08T08:13:26;4.60;82.80
210;DHT22;90;48.810;9.120;2024-03-08T08:15:57;4.60;82.30
210;DHT22;90;48.810;9.120;2024-03-08T08:18:24;4.50;81.60
210;DHT22;90;48.810;9.120;2024-03-08T08:20:51;4.60;82.20
210;DHT22;90;48.810;9.120;2024-03-08T08:23:20;4.60;82.10
210;DHT22;90;48.810;9.120;2024-03-08T08:25:46;4.60;82.10
210;DHT22;90;48.810;9.120;2024-03-08T08:28:15;4.60;82.30
210;DHT22;90;48.810;9.120;2024-03-08T08:30:43;4.60;81.90
210;DHT22;90;48.810;9.120;2024-03-08T08:33:10;4.70;81.90
210;DHT22;90;48.810;9.120;2024-03-08T08:35:37;4.70;81.50
210;DHT22;90;48.810;9.120;2024-03-08T08:38:04;4.70;81.30
210;DHT22;90;48.810;9.120;2024-03-08T08:40:32;4.80;80.90
210;DHT22;90;48.810;9.120;2024-03-08T08:42:58;4.70;81.30
210;DHT22;90;48.810;9.120;2024-03-08T08:45:26;4.90;81.50
210;DHT22;90;48.810;9.120;2024-03-08T08:47:52;4.90;81.30
210;DHT22;90;48.810;9.120;2024-03-08T08:50:20;5.00;81.30
210;DHT22;90;48.810;9.120;2024-03-08T08:52:48;5.00;81.30
210;DHT22;90;48.810;9.120;2024-03-08T08:55:15;5.00;81.20
210;DHT22;90;48.810;9.120;2024-03-08T08:57:47;5.00;81.50
210;DHT22;90;48.810;9.120;2024-03-08T09:00:14;4.90;81.50
210;DHT22;90;48.810;9.120;2024-03-08T09:02:41;5.00;81.20
210;DHT22;90;48.810;9.120;2024-03-08T09:05:08;5.00;81.40
210;DHT22;90;48.810;9.120;2024-03-08T09:07:35;5.00;81.10
210;DHT22;90;48.810;9.120;2024-03-08T09:10:03;5.00;80.70
210;DHT22;90;48.810;9.120;2024-03-08T09:12:30;5.00;80.90
210;DHT22;90;48.810;9.120;2024-03-08T09:14:59;5.00;81.50
210;DHT22;90;48.810;9.120;2024-03-08T09:17:26;5.00;81.00
210;DHT22;90;48.810;9.120;2024-03-08T09:19:52;5.00;80.90
210;DHT22;90;48.810;9.120;2024-03-08T09:22:19;5.00;80.40
210;DHT22;90;48.810;9.120;2024-03-08T09:24:46;4.90;80.80
210;DHT22;90;48.810;9.120;2024-03-08T09:27:13;4.90;81.50
210;DHT22;90;48.810;9.120;2024-03-08T09:29:39;5.00;81.20
210;DHT22;90;48.810;9.120;2024-03-08T09:32:08;5.10;81.10
210;DHT22;90;48.810;9.120;2024-03-08T09:34:34;5.20;80.80
210;DHT22;90;48.810;9.120;2024-03-08T09:37:01;5.10;80.90
210;DHT22;90;48.810;9.120;2024-03-08T09:39:29;5.20;81.00
210;DHT22;90;48.810;9.120;2024-03-08T09:41:56;5.10;80.70
210;DHT22;90;48.810;9.120;2024-03-08T09:44:23;5.10;80.90
210;DHT22;90;48.810;9.120;2024-03-08T09:46:50;5.20;81.00
210;DHT22;90;48.810;9.120;2024-03-08T09:49:19;5.20;81.30
210;DHT22;90;48.810;9.120;2024-03-08T09:51:46;5.20;81.20
210;DHT22;90;48.810;9.120;2024-03-08T09:54:13;5.20;80.60
210;DHT22;90;48.810;9.120;2024-03-08T09:56:43;5.20;80.60
210;DHT22;90;48.810;9.120;2024-03-08T09:59:11;5.20;80.80
210;DHT22;90;48.810;9.120;2024-03-08T10:02:13;5.30;80.60
210;DHT22;90;48.810;9.120;2024-03-08T10:04:41;5.30;80.60
210;DHT22;90;48.810;9.120;2024-03-08T10:07:09;5.50;80.00
210;DHT22;90;48.810;9.120;2024-03-08T10:09:36;5.50;80.10
210;DHT22;90;48.810;9.120;2024-03-08T10:12:04;5.50;80.30
210;DHT22;90;48.810;9.120;2024-03-08T10:14:31;5.40;80.40
210;DHT22;90;48.810;9.120;2024-03-08T10:16:58;5.50;80.30
210;DHT22;90;48.810;9.120;2024-03-08T10:19:26;5.50;79.80
210;DHT22;90;48.810;9.120;2024-03-08T10:21:54;5.60;79.70
210;DHT22;90;48.810;9.120;2024-03-08T10:24:22;5.60;79.40
210;DHT22;90;48.810;9.120;2024-03-08T10:26:52;5.60;78.80
210;DHT22;90;48.810;9.120;2024-03-08T10:29:19;5.60;79.60
210;DHT22;90;48.810;9.120;2024-03-08T10:31:45;5.70;80.10
210;DHT22;90;48.810;9.120;2024-03-08T10:34:12;5.80;79.40
210;DHT22;90;48.810;9.120;2024-03-08T10:36:39;5.80;79.60
210;DHT22;90;48.810;9.120;2024-03-08T10:39:22;5.80;79.10
210;DHT22;90;48.810;9.120;2024-03-08T10:41:53;5.90;79.40
210;DHT22;90;48.810;9.120;2024-03-08T10:44:28;5.90;78.70
210;DHT22;90;48.810;9.120;2024-03-08T10:47:01;5.90;78.40
210;DHT22;90;48.810;9.120;2024-03-08T10:49:31;6.00;78.80
210;DHT22;90;48.810;9.120;2024-03-08T10:52:02;6.00;78.70
210;DHT22;90;48.810;9.120;2024-03-08T10:54:31;6.10;78.90
210;DHT22;90;48.810;9.120;2024-03-08T10:56:59;6.00;78.60
210;DHT22;90;48.810;9.120;2024-03-08T10:59:27;6.10;78.10
210;DHT22;90;48.810;9.120;2024-03-08T11:01:54;6.20;78.10
210;DHT22;90;48.810;9.120;2024-03-08T11:04:20;6.20;77.50
210;DHT22;90;48.810;9.120;2024-03-08T11:06:50;6.30;77.40
210;DHT22;90;48.810;9.120;2024-03-08T11:09:29;6.30;77.50
210;DHT22;90;48.810;9.120;2024-03-08T11:12:18;6.50;77.20
210;DHT22;90;48.810;9.120;2024-03-08T11:14:46;6.70;76.80
210;DHT22;90;48.810;9.120;2024-03-08T11:17:15;6.90;76.20
210;DHT22;90;48.810;9.120;2024-03-08T11:19:46;6.80;75.60
210;DHT22;90;48.810;9.120;2024-03-08T11:22:21;6.90;75.90
210;DHT22;90;48.810;9.120;2024-03-08T11:24:50;6.70;75.10
210;DHT22;90;48.810;9.120;2024-03-08T11:27:17;6.70;75.90
210;DHT22;90;48.810;9.120;2024-03-08T11:29:59;6.70;75.90
210;DHT22;90;48.810;9.120;2024-03-08T11:32:27;6.80;76.30
210;DHT22;90;48.810;9.120;2024-03-08T11:34:55;6.90;76.20
210;DHT22;90;48.810;9.120;2024-03-08T11:37:23;7.00;75.40
210;DHT22;90;48.810;9.120;2024-03-08T11:39:53;7.10;74.90
210;DHT22;90;48.810;9.120;2024-03-08T11:42:25;7.10;74.80
210;DHT22;90;48.810;9.120;2024-03-08T11:44:53;7.10;75.50
210;DHT22;90;48.810;9.120;2024-03-08T11:47:20;7.20;75.30
210;DHT22;90;48.810;9.120;2024-03-08T11:49:48;7.40;74.20
210;DHT22;90;48.810;9.120;2024-03-08T11:52:15;7.50;73.60
210;DHT22;90;48.810;9.120;2024-03-08T11:54:47;7.50;73.90
210;DHT22;90;48.810;9.120;2024-03-08T11:57:17;7.50;73.60
210;DHT22;90;48.810;9.120;2024-03-08T11:59:49;7.50;73.50
210;DHT22;90;48.810;9.120;2024-03-08T12:02:16;7.50;74.00
210;DHT22;90;48.810;9.120;2024-03-08T12:04:45;7.40;73.60
210;DHT22;90;48.810;9.120;2024-03-08T12:07:12;7.50;73.70
210;DHT22;90;48.810;9.120;2024-03-08T12:09:40;7.60;73.30
210;DHT22;90;48.810;9.120;2024-03-08T12:12:11;7.80;73.20
210;DHT22;90;48.810;9.120;2024-03-08T12:14:43;7.80;73.20
210;DHT22;90;48.810;9.120;2024-03-08T12:17:10;7.90;73.30
210;DHT22;90;48.810;9.120;2024-03-08T12:19:37;8.10;72.90
210;DHT22;90;48.810;9.120;2024-03-08T12:22:08;8.20;72.80
210;DHT22;90;48.810;9.120;2024-03-08T12:24:36;8.40;72.60
210;DHT22;90;48.810;9.120;2024-03-08T12:27:17;8.50;71.40
210;DHT22;90;48.810;9.120;2024-03-08T12:29:45;8.60;72.00
210;DHT22;90;48.810;9.120;2024-03-08T12:32:12;8.80;71.70
210;DHT22;90;48.810;9.120;2024-03-08T12:34:40;8.90;69.90
210;DHT22;90;48.810;9.120;2024-03-08T12:37:06;8.90;69.80
210;DHT22;90;48.810;9.120;2024-03-08T12:39:35;9.00;70.80
210;DHT22;90;48.810;9.120;2024-03-08T12:42:02;9.00;70.40
210;DHT22;90;48.810;9.120;2024-03-08T12:44:29;9.10;69.50
210;DHT22;90;48.810;9.120;2024-03-08T12:46:57;9.00;70.10
210;DHT22;90;48.810;9.120;2024-03-08T12:49:25;9.10;70.10
210;DHT22;90;48.810;9.120;2024-03-08T12:51:52;9.20;70.50
210;DHT22;90;48.810;9.120;2024-03-08T12:54:19;9.40;69.90
210;DHT22;90;48.810;9.120;2024-03-08T12:56:48;9.60;68.80
210;DHT22;90;48.810;9.120;2024-03-08T12:59:18;9.70;68.60
210;DHT22;90;48.810;9.120;2024-03-08T13:01:47;9.80;68.20
210;DHT22;90;48.810;9.120;2024-03-08T13:04:15;9.80;67.60
210;DHT22;90;48.810;9.120;2024-03-08T13:06:42;9.80;68.30
210;DHT22;90;48.810;9.120;2024-03-08T13:09:08;9.90;68.30
210;DHT22;90;48.810;9.120;2024-03-08T13:11:35;10.00;67.00
210;DHT22;90;48.810;9.120;2024-03-08T13:14:03;10.10;67.10
210;DHT22;90;48.810;9.120;2024-03-08T13:16:30;10.10;66.80
210;DHT22;90;48.810;9.120;2024-03-08T13:18:57;10.00;67.30
210;DHT22;90;48.810;9.120;2024-03-08T13:21:27;10.10;67.60
210;DHT22;90;48.810;9.120;2024-03-08T13:23:55;10.30;66.90
210;DHT22;90;48.810;9.120;2024-03-08T13:26:24;10.30;65.60
210;DHT22;90;48.810;9.120;2024-03-08T13:28:55;10.30;66.50
210;DHT22;90;48.810;9.120;2024-03-08T13:31:24;10.40;66.00
210;DHT22;90;48.810;9.120;2024-03-08T13:33:50;10.50;65.50
210;DHT22;90;48.810;9.120;2024-03-08T13:36:23;10.50;64.60
210;DHT22;90;48.810;9.120;2024-03-08T13:38:55;10.60;68.50
210;DHT22;90;48.810;9.120;2024-03-08T13:41:24;10.70;65.90
210;DHT22;90;48.810;9.120;2024-03-08T13:43:51;10.80;65.00
210;DHT22;90;48.810;9.120;2024-03-08T13:46:18;10.90;65.40
210;DHT22;90;48.810;9.120;2024-03-08T13:48:45;11.20;64.90
210;DHT22;90;48.810;9.120;2024-03-08T13:51:13;11.30;64.20
210;DHT22;90;48.810;9.120;2024-03-08T13:53:42;11.40;62.70
210;DHT22;90;48.810;9.120;2024-03-08T13:56:11;11.40;63.60
210;DHT22;90;48.810;9.120;2024-03-08T13:58:39;11.50;61.90
210;DHT22;90;48.810;9.120;2024-03-08T14:01:06;11.60;61.90
210;DHT22;90;48.810;9.120;2024-03-08T14:03:37;11.60;62.00
210;DHT22;90;48.810;9.120;2024-03-08T14:06:04;11.60;61.40
210;DHT22;90;48.810;9.120;2024-03-08T14:08:32;11.40;62.00
210;DHT22;90;48.810;9.120;2024-03-08T14:10:59;11.40;62.90
210;DHT22;90;48.810;9.120;2024-03-08T14:13:40;11.30;62.50
210;DHT22;90;48.810;9.120;2024-03-08T14:16:07;11.40;61.60
210;DHT22;90;48.810;9.120;2024-03-08T14:18:36;11.50;62.10
210;DHT22;90;48.810;9.120;2024-03-08T14:21:03;11.60;61.20
210;DHT22;90;48.810;9.120;2024-03-08T14:23:31;11.70;61.00
210;DHT22;90;48.810;9.120;2024-03-08T14:26:08;11.80;61.90
210;DHT22;90;48.810;9.120;2024-03-08T14:28:41;11.70;59.90
210;DHT22;90;48.810;9.120;2024-03-08T14:31:14;11.70;60.80
210;DHT22;90;48.810;9.120;2024-03-08T14:33:44;11.80;61.70
210;DHT22;90;48.810;9.120;2024-03-08T14:36:14;11.90;60.60
210;DHT22;90;48.810;9.120;2024-03-08T14:38:42;11.90;60.40
210;DHT22;90;48.810;9.120;2024-03-08T14:41:09;11.90;59.90
210;DHT22;90;48.810;9.120;2024-03-08T14:43:48;12.10;59.80
210;DHT22;90;48.810;9.120;2024-03-08T14:46:19;12.30;59.90
210;DHT22;90;48.810;9.120;2024-03-08T14:48:50;12.40;58.50
210;DHT22;90;48.810;9.120;2024-03-08T14:51:48;12.60;59.60
210;DHT22;90;48.810;9.120;2024-03-08T14:54:17;12.70;58.00
210;DHT22;90;48.810;9.120;2024-03-08T14:56:50;12.70;57.80
210;DHT22;90;48.810;9.120;2024-03-08T14:59:50;12.50;57.60
210;DHT22;90;48.810;9.120;2024-03-08T15:02:17;12.50;58.20
210;DHT22;90;48.810;9.120;2024-03-08T15:04:49;12.50;58.50
210;DHT22;90;48.810;9.120;2024-03-08T15:07:23;12.50;58.30
210;DHT22;90;48.810;9.120;2024-03-08T15:09:51;12.60;58.80
210;DHT22;90;48.810;9.120;2024-03-08T15:12:18;12.70;58.20
210;DHT22;90;48.810;9.120;2024-03-08T15:14:45;12.80;57.80
210;DHT22;90;48.810;9.120;2024-03-08T15:17:23;12.80;57.50
210;DHT22;90;48.810;9.120;2024-03-08T15:21:17;12.90;58.20
210;DHT22;90;48.810;9.120;2024-03-08T15:39:49;13.30;57.00
210;DHT22;90;48.810;9.120;2024-03-08T15:45:16;13.30;56.20
210;DHT22;90;48.810;9.120;2024-03-08T15:47:48;13.40;56.30
210;DHT22;90;48.810;9.120;2024-03-08T15:50:15;13.40;56.40
210;DHT22;90;48.810;9.120;2024-03-08T15:52:43;13.50;60.60
210;DHT22;90;48.810;9.120;2024-03-08T15:55:19;13.70;56.60
210;DHT22;90;48.810;9.120;2024-03-08T15:57:48;13.50;55.40
210;DHT22;90;48.810;9.120;2024-03-08T16:00:20;13.40;56.10
210;DHT22;90;48.810;9.120;2024-03-08T16:03:02;13.30;56.00
210;DHT22;90;48.810;9.120;2024-03-08T16:05:32;13.30;56.60
210;DHT22;90;48.810;9.120;2024-03-08T16:08:03;13.10;57.00
210;DHT22;90;48.810;9.120;2024-03-08T16:11:26;13.10;57.20
210;DHT22;90;48.810;9.120;2024-03-08T16:13:44;12.80;57.50
210;DHT22;90;48.810;9.120;2024-03-08T16:23:24;11.70;60.80
210;DHT22;90;48.810;9.120;2024-03-08T16:25:55;11.40;61.90
210;DHT22;90;48.810;9.120;2024-03-08T16:28:22;11.20;62.70
210;DHT22;90;48.810;9.120;2024-03-08T16:30:51;11.00;63.20
210;DHT22;90;48.810;9.120;2024-03-08T16:33:20;11.20;72.60
210;DHT22;90;48.810;9.120;2024-03-08T16:35:47;11.60;74.70
210;DHT22;90;48.810;9.120;2024-03-08T16:38:15;11.50;66.90
210;DHT22;90;48.810;9.120;2024-03-08T16:40:44;11.30;64.30
210;DHT22;90;48.810;9.120;2024-03-08T16:43:12;11.10;64.20
210;DHT22;90;48.810;9.120;2024-03-08T16:45:41;10.90;64.50
210;DHT22;90;48.810;9.120;2024-03-08T16:48:08;10.70;64.60
210;DHT22;90;48.810;9.120;2024-03-08T16:50:35;10.60;64.90
210;DHT22;90;48.810;9.120;2024-03-08T16:53:02;10.30;65.30
210;DHT22;90;48.810;9.120;2024-03-08T16:55:30;10.20;65.90
210;DHT22;90;48.810;9.120;2024-03-08T16:57:56;10.20;66.10
210;DHT22;90;48.810;9.120;2024-03-08T17:00:26;10.10;66.20
210;DHT22;90;48.810;9.120;2024-03-08T17:02:54;10.00;66.50
210;DHT22;90;48.810;9.120;2024-03-08T17:05:20;9.90;66.60
210;DHT22;90;48.810;9.120;2024-03-08T17:07:49;9.80;67.00
210;DHT22;90;48.810;9.120;2024-03-08T17:10:17;9.70;67.20
210;DHT22;90;48.810;9.120;2024-03-08T17:12:45;9.60;67.30
210;DHT22;90;48.810;9.120;2024-03-08T17:15:13;9.50;67.40
210;DHT22;90;48.810;9.120;2024-03-08T17:17:41;9.50;67.70
210;DHT22;90;48.810;9.120;2024-03-08T17:20:10;9.40;68.10
210;DHT22;90;48.810;9.120;2024-03-08T17:22:41;9.40;68.10
210;DHT22;90;48.810;9.120;2024-03-08T17:25:08;9.40;68.20
210;DHT22;90;48.810;9.120;2024-03-08T17:27:41;9.40;68.10
210;DHT22;90;48.810;9.120;2024-03-08T17:30:10;9.30;68.60
210;DHT22;90;48.810;9.120;2024-03-08T17:32:46;9.30;68.80
210;DHT22;90;48.810;9.120;2024-03-08T17:35:14;9.20;69.20
210;DHT22;90;48.810;9.120;2024-03-08T17:37:45;9.10;69.30
210;DHT22;90;48.810;9.120;2024-03-08T17:40:13;9.00;69.60
210;DHT22;90;48.810;9.120;2024-03-08T17:42:43;9.00;69.80
210;DHT22;90;48.810;9.120;2024-03-08T17:45:25;9.00;69.90
210;DHT22;90;48.810;9.120;2024-03-08T17:47:59;9.00;70.10
210;DHT22;90;48.810;9.120;2024-03-08T17:50:25;9.00;70.10